sensor_id;sensor_type;location;lat;lon;timestamp;P1;durP1;ratioP1;P2;durP2;ratioP2
13408;SDS011;6775;49.574;11.170;2023-10-13T00:01:03;7.53;;;6.53;;
13408;SDS011;6775;49.574;11.170;2023-10-13T00:03:33;7.03;;;6.07;;
13408;SDS011;6775;49.574;11.170;2023-10-13T00:06:04;8.37;;;6.57;;
13408;SDS011;6775;49.574;11.170;2023-10-13T00:08:35;6.33;;;5.30;;
13408;SDS011;6775;49.574;11.170;2023-10-13T00:11:05;7.30;;;5.73;;
13408;SDS011;6775;49.574;11.170;2023-10-13T00:13:36;6.80;;;5.47;;
13408;SDS011;6775;49.574;11.170;2023-10-13T00:16:09;6.23;;;5.63;;
13408;SDS011;6775;49.574;11.170;2023-10-13T00:18:44;8.87;;;6.10;;
13408;SDS011;6775;49.574;11.170;2023-10-13T00:21:13;8.00;;;5.60;;
13408;SDS011;6775;49.574;11.170;2023-10-13T00:23:46;7.30;;;5.53;;
13408;SDS011;6775;49.574;11.170;2023-10-13T00:26:20;13.20;;;8.53;;
13408;SDS011;6775;49.574;11.170;2023-10-13T00:28:54;8.23;;;5.77;;
13408;SDS011;6775;49.574;11.170;2023-10-13T00:31:35;8.13;;;6.30;;
13408;SDS011;6775;49.574;11.170;2023-10-13T00:34:05;6.27;;;5.63;;
13408;SDS011;6775;49.574;11.170;2023-10-13T00:36:46;7.13;;;5.83;;
13408;SDS011;6775;49.574;11.170;2023-10-13T00:39:36;9.63;;;6.87;;
13408;SDS011;6775;49.574;11.170;2023-10-13T00:42:06;7.77;;;6.23;;
13408;SDS011;6775;49.574;11.170;2023-10-13T00:44:43;5.60;;;5.10;;
13408;SDS011;6775;49.574;11.170;2023-10-13T00:47:16;11.13;;;8.50;;
13408;SDS011;6775;49.574;11.170;2023-10-13T00:49:59;11.27;;;7.80;;
13408;SDS011;6775;49.574;11.170;2023-10-13T00:52:28;8.03;;;7.23;;
13408;SDS011;6775;49.574;11.170;2023-10-13T00:54:58;10.20;;;6.83;;
13408;SDS011;6775;49.574;11.170;2023-10-13T00:57:28;7.83;;;6.77;;
13408;SDS011;6775;49.574;11.170;2023-10-13T00:59:56;8.40;;;6.37;;
13408;SDS011;6775;49.574;11.170;2023-10-13T01:02:25;8.23;;;6.33;;
13408;SDS011;6775;49.574;11.170;2023-10-13T01:05:04;7.57;;;6.40;;
13408;SDS011;6775;49.574;11.170;2023-10-13T01:07:37;8.90;;;6.43;;
13408;SDS011;6775;49.574;11.170;2023-10-13T01:10:08;6.77;;;5.73;;
13408;SDS011;6775;49.574;11.170;2023-10-13T01:12:41;7.53;;;6.00;;
13408;SDS011;6775;49.574;11.170;2023-10-13T01:15:09;8.47;;;7.10;;
13408;SDS011;6775;49.574;11.170;2023-10-13T01:17:37;6.70;;;6.10;;
13408;SDS011;6775;49.574;11.170;2023-10-13T01:20:05;7.70;;;6.10;;
13408;SDS011;6775;49.574;11.170;2023-10-13T01:22:38;7.47;;;5.90;;
13408;SDS011;6775;49.574;11.170;2023-10-13T01:25:07;7.23;;;6.40;;
13408;SDS011;6775;49.574;11.170;2023-10-13T01:27:39;7.03;;;5.87;;
13408;SDS011;6775;49.574;11.170;2023-10-13T01:30:07;7.30;;;5.87;;
13408;SDS011;6775;49.574;11.170;2023-10-13T01:32:39;7.67;;;6.50;;
13408;SDS011;6775;49.574;11.170;2023-10-13T01:35:11;6.03;;;5.43;;
13408;SDS011;6775;49.574;11.170;2023-10-13T01:37:39;6.77;;;5.40;;
13408;SDS011;6775;49.574;11.170;2023-10-13T01:40:08;5.87;;;5.27;;
13408;SDS011;6775;49.574;11.170;2023-10-13T01:42:38;6.67;;;5.63;;
13408;SDS011;6775;49.574;11.170;2023-10-13T01:45:06;6.73;;;6.03;;
13408;SDS011;6775;49.574;11.170;2023-10-13T01:47:34;6.57;;;5.63;;
13408;SDS011;6775;49.574;11.170;2023-10-13T01:50:02;8.07;;;6.50;;
13408;SDS011;6775;49.574;11.170;2023-10-13T01:52:41;11.10;;;7.60;;
13408;SDS011;6775;49.574;11.170;2023-10-13T01:55:09;10.83;;;8.37;;
13408;SDS011;6775;49.574;11.170;2023-10-13T01:57:38;10.13;;;7.60;;
13408;SDS011;6775;49.574;11.170;2023-10-13T02:00:08;13.83;;;7.77;;
13408;SDS011;6775;49.574;11.170;2023-10-13T02:02:45;9.30;;;6.77;;
13408;SDS011;6775;49.574;11.170;2023-10-13T02:05:16;8.33;;;6.63;;
13408;SDS011;6775;49.574;11.170;2023-10-13T02:07:44;7.70;;;6.33;;
13408;SDS011;6775;49.574;11.170;2023-10-13T02:10:13;7.93;;;5.90;;
13408;SDS011;6775;49.574;11.170;2023-10-13T02:12:41;9.43;;;6.00;;
13408;SDS011;6775;49.574;11.170;2023-10-13T02:15:11;7.40;;;6.47;;
13408;SDS011;6775;49.574;11.170;2023-10-13T02:17:47;7.03;;;5.67;;
13408;SDS011;6775;49.574;11.170;2023-10-13T02:20:18;7.00;;;6.00;;
13408;SDS011;6775;49.574;11.170;2023-10-13T02:22:49;6.23;;;5.00;;
13408;SDS011;6775;49.574;11.170;2023-10-13T02:25:18;7.63;;;6.10;;
13408;SDS011;6775;49.574;11.170;2023-10-13T02:28:02;7.97;;;6.33;;
13408;SDS011;6775;49.574;11.170;2023-10-13T02:30:36;7.40;;;6.50;;
13408;SDS011;6775;49.574;11.170;2023-10-13T02:33:05;7.20;;;6.50;;
13408;SDS011;6775;49.574;11.170;2023-10-13T02:35:33;9.23;;;7.00;;
13408;SDS011;6775;49.574;11.170;2023-10-13T02:38:07;6.90;;;5.60;;
13408;SDS011;6775;49.574;11.170;2023-10-13T02:40:38;7.67;;;5.97;;
13408;SDS011;6775;49.574;11.170;2023-10-13T02:43:06;7.57;;;6.77;;
13408;SDS011;6775;49.574;11.170;2023-10-13T02:45:33;8.47;;;6.70;;
13408;SDS011;6775;49.574;11.170;2023-10-13T02:48:03;7.30;;;6.40;;
13408;SDS011;6775;49.574;11.170;2023-10-13T02:50:40;7.30;;;6.37;;
13408;SDS011;6775;49.574;11.170;2023-10-13T02:53:12;7.33;;;6.00;;
13408;SDS011;6775;49.574;11.170;2023-10-13T02:55:49;7.97;;;6.17;;
13408;SDS011;6775;49.574;11.170;2023-10-13T02:58:19;7.60;;;5.87;;
13408;SDS011;6775;49.574;11.170;2023-10-13T03:00:47;7.37;;;5.37;;
13408;SDS011;6775;49.574;11.170;2023-10-13T03:03:15;6.13;;;5.53;;
13408;SDS011;6775;49.574;11.170;2023-10-13T03:05:45;6.37;;;5.33;;
13408;SDS011;6775;49.574;11.170;2023-10-13T03:08:12;6.53;;;5.27;;
13408;SDS011;6775;49.574;11.170;2023-10-13T03:10:53;7.90;;;6.20;;
13408;SDS011;6775;49.574;11.170;2023-10-13T03:13:21;5.97;;;5.23;;
13408;SDS011;6775;49.574;11.170;2023-10-13T03:15:49;7.43;;;5.97;;
13408;SDS011;6775;49.574;11.170;2023-10-13T03:18:16;8.27;;;5.63;;
13408;SDS011;6775;49.574;11.170;2023-10-13T03:20:45;7.80;;;5.80;;
13408;SDS011;6775;49.574;11.170;2023-10-13T03:23:17;6.33;;;5.33;;
13408;SDS011;6775;49.574;11.170;2023-10-13T03:25:44;6.10;;;5.33;;
13408;SDS011;6775;49.574;11.170;2023-10-13T03:28:17;5.77;;;5.13;;
13408;SDS011;6775;49.574;11.170;2023-10-13T03:30:50;7.50;;;6.17;;
13408;SDS011;6775;49.574;11.170;2023-10-13T03:33:19;7.17;;;5.70;;
13408;SDS011;6775;49.574;11.170;2023-10-13T03:35:52;7.47;;;5.33;;
13408;SDS011;6775;49.574;11.170;2023-10-13T03:38:25;6.90;;;5.97;;
13408;SDS011;6775;49.574;11.170;2023-10-13T03:40:54;7.33;;;6.57;;
13408;SDS011;6775;49.574;11.170;2023-10-13T03:43:34;9.03;;;6.60;;
13408;SDS011;6775;49.574;11.170;2023-10-13T03:46:11;8.50;;;6.87;;
13408;SDS011;6775;49.574;11.170;2023-10-13T03:48:40;8.63;;;6.23;;
13408;SDS011;6775;49.574;11.170;2023-10-13T03:51:18;9.23;;;5.77;;
13408;SDS011;6775;49.574;11.170;2023-10-13T03:53:46;7.90;;;6.40;;
13408;SDS011;6775;49.574;11.170;2023-10-13T03:56:21;6.90;;;5.80;;
13408;SDS011;6775;49.574;11.170;2023-10-13T03:58:59;7.43;;;5.87;;
13408;SDS011;6775;49.574;11.170;2023-10-13T04:01:32;7.27;;;5.70;;
13408;SDS011;6775;49.574;11.170;2023-10-13T04:04:12;7.93;;;6.30;;
13408;SDS011;6775;49.574;11.170;2023-10-13T04:06:42;7.47;;;5.93;;
13408;SDS011;6775;49.574;11.170;2023-10-13T04:09:21;9.03;;;6.13;;
13408;SDS011;6775;49.574;11.170;2023-10-13T04:12:37;8.03;;;5.73;;
13408;SDS011;6775;49.574;11.170;2023-10-13T04:15:32;7.00;;;5.93;;
13408;SDS011;6775;49.574;11.170;2023-10-13T04:18:27;6.70;;;5.73;;
13408;SDS011;6775;49.574;11.170;2023-10-13T04:21:16;6.90;;;5.60;;
13408;SDS011;6775;49.574;11.170;2023-10-13T04:24:06;6.90;;;6.00;;
13408;SDS011;6775;49.574;11.170;2023-10-13T04:26:50;7.50;;;5.47;;
13408;SDS011;6775;49.574;11.170;2023-10-13T04:29:36;7.37;;;5.83;;
13408;SDS011;6775;49.574;11.170;2023-10-13T04:32:19;6.70;;;5.77;;
13408;SDS011;6775;49.574;11.170;2023-10-13T04:34:56;6.40;;;5.23;;
13408;SDS011;6775;49.574;11.170;2023-10-13T04:37:34;8.57;;;5.87;;
13408;SDS011;6775;49.574;11.170;2023-10-13T04:40:17;6.00;;;5.17;;
13408;SDS011;6775;49.574;11.170;2023-10-13T04:42:51;6.07;;;5.23;;
13408;SDS011;6775;49.574;11.170;2023-10-13T04:45:23;7.20;;;5.90;;
13408;SDS011;6775;49.574;11.170;2023-10-13T04:48:16;7.47;;;6.03;;
13408;SDS011;6775;49.574;11.170;2023-10-13T04:50:45;5.87;;;5.27;;
13408;SDS011;6775;49.574;11.170;2023-10-13T04:53:17;7.47;;;5.70;;
13408;SDS011;6775;49.574;11.170;2023-10-13T04:55:57;7.97;;;5.80;;
13408;SDS011;6775;49.574;11.170;2023-10-13T04:58:54;7.53;;;5.53;;
13408;SDS011;6775;49.574;11.170;2023-10-13T05:01:46;6.17;;;5.57;;
13408;SDS011;6775;49.574;11.170;2023-10-13T05:04:49;7.40;;;6.47;;
13408;SDS011;6775;49.574;11.170;2023-10-13T05:07:37;7.97;;;6.10;;
13408;SDS011;6775;49.574;11.170;2023-10-13T05:10:23;6.83;;;5.50;;
13408;SDS011;6775;49.574;11.170;2023-10-13T05:13:08;6.97;;;5.80;;
13408;SDS011;6775;49.574;11.170;2023-10-13T05:15:54;8.07;;;6.47;;
13408;SDS011;6775;49.574;11.170;2023-10-13T05:18:40;6.97;;;5.43;;
13408;SDS011;6775;49.574;11.170;2023-10-13T05:21:29;6.10;;;5.50;;
13408;SDS011;6775;49.574;11.170;2023-10-13T05:24:14;8.00;;;6.00;;
13408;SDS011;6775;49.574;11.170;2023-10-13T05:27:00;6.20;;;5.60;;
13408;SDS011;6775;49.574;11.170;2023-10-13T05:29:46;6.77;;;5.80;;
13408;SDS011;6775;49.574;11.170;2023-10-13T05:32:33;6.23;;;5.60;;
13408;SDS011;6775;49.574;11.170;2023-10-13T05:35:19;8.90;;;5.97;;
13408;SDS011;6775;49.574;11.170;2023-10-13T05:38:07;9.20;;;6.10;;
13408;SDS011;6775;49.574;11.170;2023-10-13T05:40:52;9.57;;;6.20;;
13408;SDS011;6775;49.574;11.170;2023-10-13T05:43:44;6.27;;;4.93;;
13408;SDS011;6775;49.574;11.170;2023-10-13T05:46:30;6.37;;;4.70;;
13408;SDS011;6775;49.574;11.170;2023-10-13T05:49:37;7.37;;;5.50;;
13408;SDS011;6775;49.574;11.170;2023-10-13T05:52:16;7.37;;;5.40;;
13408;SDS011;6775;49.574;11.170;2023-10-13T05:55:08;7.50;;;5.07;;
13408;SDS011;6775;49.574;11.170;2023-10-13T05:57:54;5.73;;;4.50;;
13408;SDS011;6775;49.574;11.170;2023-10-13T06:00:41;8.10;;;5.30;;
13408;SDS011;6775;49.574;11.170;2023-10-13T06:03:27;6.33;;;4.83;;
13408;SDS011;6775;49.574;11.170;2023-10-13T06:06:27;6.23;;;4.40;;
13408;SDS011;6775;49.574;11.170;2023-10-13T06:09:12;9.63;;;5.30;;
13408;SDS011;6775;49.574;11.170;2023-10-13T06:11:59;9.30;;;5.13;;
13408;SDS011;6775;49.574;11.170;2023-10-13T06:14:44;7.10;;;4.60;;
13408;SDS011;6775;49.574;11.170;2023-10-13T06:17:30;6.97;;;5.00;;
13408;SDS011;6775;49.574;11.170;2023-10-13T06:20:16;6.13;;;4.70;;
13408;SDS011;6775;49.574;11.170;2023-10-13T06:23:01;5.20;;;4.70;;
13408;SDS011;6775;49.574;11.170;2023-10-13T06:25:50;5.63;;;4.07;;
13408;SDS011;6775;49.574;11.170;2023-10-13T06:28:37;5.13;;;4.57;;
13408;SDS011;6775;49.574;11.170;2023-10-13T06:31:08;5.00;;;4.20;;
13408;SDS011;6775;49.574;11.170;2023-10-13T06:33:48;5.90;;;4.37;;
13408;SDS011;6775;49.574;11.170;2023-10-13T06:36:16;4.77;;;4.07;;
13408;SDS011;6775;49.574;11.170;2023-10-13T06:38:45;7.70;;;4.87;;
13408;SDS011;6775;49.574;11.170;2023-10-13T06:41:21;5.57;;;4.97;;
13408;SDS011;6775;49.574;11.170;2023-10-13T06:43:58;6.40;;;4.93;;
13408;SDS011;6775;49.574;11.170;2023-10-13T06:46:27;6.17;;;4.57;;
13408;SDS011;6775;49.574;11.170;2023-10-13T06:49:00;6.77;;;5.00;;
13408;SDS011;6775;49.574;11.170;2023-10-13T06:51:29;4.80;;;4.30;;
13408;SDS011;6775;49.574;11.170;2023-10-13T06:54:04;6.47;;;4.10;;
13408;SDS011;6775;49.574;11.170;2023-10-13T06:56:38;8.00;;;4.50;;
13408;SDS011;6775;49.574;11.170;2023-10-13T06:59:08;10.40;;;5.00;;
13408;SDS011;6775;49.574;11.170;2023-10-13T07:01:36;4.97;;;4.03;;
13408;SDS011;6775;49.574;11.170;2023-10-13T07:04:06;5.27;;;4.50;;
13408;SDS011;6775;49.574;11.170;2023-10-13T07:06:40;6.50;;;3.87;;
13408;SDS011;6775;49.574;11.170;2023-10-13T07:09:14;7.00;;;4.43;;
13408;SDS011;6775;49.574;11.170;2023-10-13T07:12:06;6.63;;;4.40;;
13408;SDS011;6775;49.574;11.170;2023-10-13T07:14:47;9.20;;;4.30;;
13408;SDS011;6775;49.574;11.170;2023-10-13T07:17:37;5.53;;;3.90;;
13408;SDS011;6775;49.574;11.170;2023-10-13T07:20:06;8.30;;;4.23;;
13408;SDS011;6775;49.574;11.170;2023-10-13T07:22:42;4.67;;;3.70;;
13408;SDS011;6775;49.574;11.170;2023-10-13T07:25:21;5.07;;;3.80;;
13408;SDS011;6775;49.574;11.170;2023-10-13T07:27:52;5.43;;;4.13;;
13408;SDS011;6775;49.574;11.170;2023-10-13T07:30:24;6.00;;;4.00;;
13408;SDS011;6775;49.574;11.170;2023-10-13T07:32:54;5.63;;;3.90;;
13408;SDS011;6775;49.574;11.170;2023-10-13T07:35:26;4.47;;;3.70;;
13408;SDS011;6775;49.574;11.170;2023-10-13T07:37:57;4.33;;;3.67;;
13408;SDS011;6775;49.574;11.170;2023-10-13T07:40:27;5.40;;;3.77;;
13408;SDS011;6775;49.574;11.170;2023-10-13T07:43:06;4.87;;;3.43;;
13408;SDS011;6775;49.574;11.170;2023-10-13T07:45:39;6.03;;;3.97;;
13408;SDS011;6775;49.574;11.170;2023-10-13T07:48:09;6.17;;;4.20;;
13408;SDS011;6775;49.574;11.170;2023-10-13T07:50:46;6.00;;;3.67;;
13408;SDS011;6775;49.574;11.170;2023-10-13T07:53:15;6.20;;;3.80;;
13408;SDS011;6775;49.574;11.170;2023-10-13T07:55:48;5.83;;;3.67;;
13408;SDS011;6775;49.574;11.170;2023-10-13T07:58:21;6.70;;;3.50;;
13408;SDS011;6775;49.574;11.170;2023-10-13T08:00:53;6.43;;;3.47;;
13408;SDS011;6775;49.574;11.170;2023-10-13T08:03:33;5.37;;;3.63;;
13408;SDS011;6775;49.574;11.170;2023-10-13T08:06:11;6.93;;;3.80;;
13408;SDS011;6775;49.574;11.170;2023-10-13T08:08:48;4.13;;;3.60;;
13408;SDS011;6775;49.574;11.170;2023-10-13T08:11:33;5.70;;;3.40;;
13408;SDS011;6775;49.574;11.170;2023-10-13T08:14:03;6.37;;;3.50;;
13408;SDS011;6775;49.574;11.170;2023-10-13T08:17:05;5.93;;;3.50;;
13408;SDS011;6775;49.574;11.170;2023-10-13T08:19:38;5.03;;;3.70;;
13408;SDS011;6775;49.574;11.170;2023-10-13T08:22:11;5.17;;;3.73;;
13408;SDS011;6775;49.574;11.170;2023-10-13T08:24:52;4.60;;;3.00;;
13408;SDS011;6775;49.574;11.170;2023-10-13T08:27:25;5.93;;;3.77;;
13408;SDS011;6775;49.574;11.170;2023-10-13T08:30:14;3.83;;;2.90;;
13408;SDS011;6775;49.574;11.170;2023-10-13T08:32:54;4.53;;;3.20;;
13408;SDS011;6775;49.574;11.170;2023-10-13T08:35:23;5.87;;;3.10;;
13408;SDS011;6775;49.574;11.170;2023-10-13T08:38:01;4.00;;;3.10;;
13408;SDS011;6775;49.574;11.170;2023-10-13T08:40:57;5.40;;;3.13;;
13408;SDS011;6775;49.574;11.170;2023-10-13T08:43:44;5.13;;;3.40;;
13408;SDS011;6775;49.574;11.170;2023-10-13T08:46:18;4.65;;;3.03;;
13408;SDS011;6775;49.574;11.170;2023-10-13T08:48:57;6.07;;;3.63;;
13408;SDS011;6775;49.574;11.170;2023-10-13T08:51:35;4.65;;;3.35;;
13408;SDS011;6775;49.574;11.170;2023-10-13T08:54:12;5.80;;;2.80;;
13408;SDS011;6775;49.574;11.170;2023-10-13T08:57:00;3.53;;;2.90;;
13408;SDS011;6775;49.574;11.170;2023-10-13T08:59:59;5.78;;;3.20;;
13408;SDS011;6775;49.574;11.170;2023-10-13T09:02:41;3.78;;;3.08;;
13408;SDS011;6775;49.574;11.170;2023-10-13T09:05:49;7.72;;;3.15;;
13408;SDS011;6775;49.574;11.170;2023-10-13T09:08:33;6.60;;;3.10;;
13408;SDS011;6775;49.574;11.170;2023-10-13T09:11:31;7.20;;;3.05;;
13408;SDS011;6775;49.574;11.170;2023-10-13T09:14:15;6.57;;;3.08;;
13408;SDS011;6775;49.574;11.170;2023-10-13T09:17:03;6.32;;;3.00;;
13408;SDS011;6775;49.574;11.170;2023-10-13T09:19:44;5.78;;;2.80;;
13408;SDS011;6775;49.574;11.170;2023-10-13T09:22:22;5.72;;;2.85;;
13408;SDS011;6775;49.574;11.170;2023-10-13T09:24:54;6.90;;;3.38;;
13408;SDS011;6775;49.574;11.170;2023-10-13T09:27:25;5.80;;;3.65;;
13408;SDS011;6775;49.574;11.170;2023-10-13T09:29:58;4.82;;;3.30;;
13408;SDS011;6775;49.574;11.170;2023-10-13T09:32:32;6.57;;;3.33;;
13408;SDS011;6775;49.574;11.170;2023-10-13T09:35:12;5.05;;;3.15;;
13408;SDS011;6775;49.574;11.170;2023-10-13T09:37:46;5.10;;;2.97;;
13408;SDS011;6775;49.574;11.170;2023-10-13T09:40:15;4.60;;;3.35;;
13408;SDS011;6775;49.574;11.170;2023-10-13T09:43:00;4.97;;;3.40;;
13408;SDS011;6775;49.574;11.170;2023-10-13T09:45:33;4.18;;;2.88;;
13408;SDS011;6775;49.574;11.170;2023-10-13T09:48:06;3.90;;;2.92;;
13408;SDS011;6775;49.574;11.170;2023-10-13T09:50:43;4.35;;;3.05;;
13408;SDS011;6775;49.574;11.170;2023-10-13T09:53:16;4.40;;;3.10;;
13408;SDS011;6775;49.574;11.170;2023-10-13T09:55:46;4.85;;;3.33;;
13408;SDS011;6775;49.574;11.170;2023-10-13T09:58:21;7.07;;;3.40;;
13408;SDS011;6775;49.574;11.170;2023-10-13T10:00:56;5.47;;;3.47;;
13408;SDS011;6775;49.574;11.170;2023-10-13T10:03:43;4.80;;;2.95;;
13408;SDS011;6775;49.574;11.170;2023-10-13T10:06:20;6.20;;;3.15;;
13408;SDS011;6775;49.574;11.170;2023-10-13T10:09:05;7.15;;;3.75;;
13408;SDS011;6775;49.574;11.170;2023-10-13T10:14:56;3.85;;;3.00;;
13408;SDS011;6775;49.574;11.170;2023-10-13T10:17:39;5.18;;;3.40;;
13408;SDS011;6775;49.574;11.170;2023-10-13T10:20:09;5.55;;;2.90;;
13408;SDS011;6775;49.574;11.170;2023-10-13T10:22:56;4.97;;;2.90;;
13408;SDS011;6775;49.574;11.170;2023-10-13T10:25:31;4.03;;;3.00;;
13408;SDS011;6775;49.574;11.170;2023-10-13T10:28:02;4.97;;;3.08;;
13408;SDS011;6775;49.574;11.170;2023-10-13T10:30:33;7.43;;;3.70;;
13408;SDS011;6775;49.574;11.170;2023-10-13T10:33:05;5.77;;;3.23;;
13408;SDS011;6775;49.574;11.170;2023-10-13T10:35:38;6.07;;;3.40;;
13408;SDS011;6775;49.574;11.170;2023-10-13T10:38:09;3.87;;;3.33;;
13408;SDS011;6775;49.574;11.170;2023-10-13T10:40:50;5.22;;;3.35;;
13408;SDS011;6775;49.574;11.170;2023-10-13T10:43:26;3.85;;;3.35;;
13408;SDS011;6775;49.574;11.170;2023-10-13T10:46:08;5.45;;;3.40;;
13408;SDS011;6775;49.574;11.170;2023-10-13T10:48:40;7.25;;;3.70;;
13408;SDS011;6775;49.574;11.170;2023-10-13T10:51:10;6.03;;;3.42;;
13408;SDS011;6775;49.574;11.170;2023-10-13T10:53:48;3.97;;;3.25;;
13408;SDS011;6775;49.574;11.170;2023-10-13T10:56:24;3.60;;;2.85;;
13408;SDS011;6775;49.574;11.170;2023-10-13T10:59:03;5.32;;;2.97;;
13408;SDS011;6775;49.574;11.170;2023-10-13T11:01:42;5.10;;;3.28;;
13408;SDS011;6775;49.574;11.170;2023-10-13T11:04:14;6.07;;;3.28;;
13408;SDS011;6775;49.574;11.170;2023-10-13T11:06:46;3.50;;;2.70;;
13408;SDS011;6775;49.574;11.170;2023-10-13T11:09:14;4.40;;;2.90;;
13408;SDS011;6775;49.574;11.170;2023-10-13T11:12:09;6.30;;;3.22;;
13408;SDS011;6775;49.574;11.170;2023-10-13T11:14:59;5.53;;;3.42;;
13408;SDS011;6775;49.574;11.170;2023-10-13T11:17:31;4.30;;;3.00;;
13408;SDS011;6775;49.574;11.170;2023-10-13T11:20:18;5.32;;;3.10;;
13408;SDS011;6775;49.574;11.170;2023-10-13T11:22:52;4.45;;;2.88;;
13408;SDS011;6775;49.574;11.170;2023-10-13T11:25:21;3.30;;;3.00;;
13408;SDS011;6775;49.574;11.170;2023-10-13T11:27:57;5.03;;;3.20;;
13408;SDS011;6775;49.574;11.170;2023-10-13T11:30:32;4.28;;;2.63;;
13408;SDS011;6775;49.574;11.170;2023-10-13T11:33:08;9.13;;;2.78;;
13408;SDS011;6775;49.574;11.170;2023-10-13T11:35:38;4.15;;;2.65;;
13408;SDS011;6775;49.574;11.170;2023-10-13T11:38:22;4.05;;;2.55;;
13408;SDS011;6775;49.574;11.170;2023-10-13T11:40:53;6.47;;;3.00;;
13408;SDS011;6775;49.574;11.170;2023-10-13T11:43:43;4.25;;;3.10;;
13408;SDS011;6775;49.574;11.170;2023-10-13T11:46:30;3.85;;;2.80;;
13408;SDS011;6775;49.574;11.170;2023-10-13T11:49:16;4.57;;;2.80;;
13408;SDS011;6775;49.574;11.170;2023-10-13T11:51:45;5.38;;;3.15;;
13408;SDS011;6775;49.574;11.170;2023-10-13T11:54:15;5.05;;;2.80;;
13408;SDS011;6775;49.574;11.170;2023-10-13T11:56:46;6.43;;;2.75;;
13408;SDS011;6775;49.574;11.170;2023-10-13T11:59:16;4.25;;;3.10;;
13408;SDS011;6775;49.574;11.170;2023-10-13T12:01:44;4.88;;;3.00;;
13408;SDS011;6775;49.574;11.170;2023-10-13T12:04:46;4.47;;;2.80;;
13408;SDS011;6775;49.574;11.170;2023-10-13T12:07:18;4.35;;;2.78;;
13408;SDS011;6775;49.574;11.170;2023-10-13T12:09:48;6.25;;;3.28;;
13408;SDS011;6775;49.574;11.170;2023-10-13T12:12:32;4.30;;;2.80;;
13408;SDS011;6775;49.574;11.170;2023-10-13T12:15:08;4.60;;;2.80;;
13408;SDS011;6775;49.574;11.170;2023-10-13T12:17:41;6.47;;;2.65;;
13408;SDS011;6775;49.574;11.170;2023-10-13T12:20:11;8.38;;;3.60;;
13408;SDS011;6775;49.574;11.170;2023-10-13T12:22:45;4.63;;;3.10;;
13408;SDS011;6775;49.574;11.170;2023-10-13T12:25:21;5.03;;;3.00;;
13408;SDS011;6775;49.574;11.170;2023-10-13T12:28:10;5.28;;;2.85;;
13408;SDS011;6775;49.574;11.170;2023-10-13T12:30:46;3.75;;;3.10;;
13408;SDS011;6775;49.574;11.170;2023-10-13T12:33:19;3.08;;;2.67;;
13408;SDS011;6775;49.574;11.170;2023-10-13T12:36:03;4.32;;;2.65;;
13408;SDS011;6775;49.574;11.170;2023-10-13T12:38:37;6.70;;;2.90;;
13408;SDS011;6775;49.574;11.170;2023-10-13T12:41:38;5.90;;;2.95;;
13408;SDS011;6775;49.574;11.170;2023-10-13T12:44:24;3.38;;;2.80;;
13408;SDS011;6775;49.574;11.170;2023-10-13T12:47:10;3.72;;;2.50;;
13408;SDS011;6775;49.574;11.170;2023-10-13T12:49:55;2.75;;;2.50;;
13408;SDS011;6775;49.574;11.170;2023-10-13T12:52:34;4.30;;;2.75;;
13408;SDS011;6775;49.574;11.170;2023-10-13T12:55:02;6.17;;;2.97;;
13408;SDS011;6775;49.574;11.170;2023-10-13T12:57:36;6.00;;;2.63;;
13408;SDS011;6775;49.574;11.170;2023-10-13T13:00:11;5.13;;;2.73;;
13408;SDS011;6775;49.574;11.170;2023-10-13T13:02:51;5.73;;;2.83;;
13408;SDS011;6775;49.574;11.170;2023-10-13T13:05:22;3.97;;;2.70;;
13408;SDS011;6775;49.574;11.170;2023-10-13T13:07:54;3.17;;;2.87;;
13408;SDS011;6775;49.574;11.170;2023-10-13T13:10:23;3.30;;;2.53;;
13408;SDS011;6775;49.574;11.170;2023-10-13T13:13:02;3.90;;;2.80;;
13408;SDS011;6775;49.574;11.170;2023-10-13T13:15:31;3.57;;;2.93;;
13408;SDS011;6775;49.574;11.170;2023-10-13T13:18:01;6.30;;;3.10;;
13408;SDS011;6775;49.574;11.170;2023-10-13T13:20:37;3.37;;;2.50;;
13408;SDS011;6775;49.574;11.170;2023-10-13T13:23:10;3.83;;;2.77;;
13408;SDS011;6775;49.574;11.170;2023-10-13T13:25:41;4.57;;;2.63;;
13408;SDS011;6775;49.574;11.170;2023-10-13T13:28:11;4.80;;;3.13;;
13408;SDS011;6775;49.574;11.170;2023-10-13T13:30:41;6.17;;;3.00;;
13408;SDS011;6775;49.574;11.170;2023-10-13T13:33:10;5.00;;;3.33;;
13408;SDS011;6775;49.574;11.170;2023-10-13T13:35:39;5.33;;;2.70;;
13408;SDS011;6775;49.574;11.170;2023-10-13T13:38:09;7.87;;;2.60;;
13408;SDS011;6775;49.574;11.170;2023-10-13T13:40:43;9.93;;;3.20;;
13408;SDS011;6775;49.574;11.170;2023-10-13T13:43:15;6.57;;;2.87;;
13408;SDS011;6775;49.574;11.170;2023-10-13T13:45:58;4.23;;;2.70;;
13408;SDS011;6775;49.574;11.170;2023-10-13T13:48:29;5.53;;;2.87;;
13408;SDS011;6775;49.574;11.170;2023-10-13T13:51:02;5.67;;;3.10;;
13408;SDS011;6775;49.574;11.170;2023-10-13T13:53:38;6.27;;;2.93;;
13408;SDS011;6775;49.574;11.170;2023-10-13T13:56:11;6.40;;;2.83;;
13408;SDS011;6775;49.574;11.170;2023-10-13T13:58:42;5.40;;;2.43;;
13408;SDS011;6775;49.574;11.170;2023-10-13T14:01:10;5.23;;;3.00;;
13408;SDS011;6775;49.574;11.170;2023-10-13T14:03:43;5.97;;;2.80;;
13408;SDS011;6775;49.574;11.170;2023-10-13T14:06:13;5.33;;;2.73;;
13408;SDS011;6775;49.574;11.170;2023-10-13T14:08:49;10.27;;;2.57;;
13408;SDS011;6775;49.574;11.170;2023-10-13T14:11:21;6.37;;;2.97;;
13408;SDS011;6775;49.574;11.170;2023-10-13T14:14:09;5.50;;;2.67;;
13408;SDS011;6775;49.574;11.170;2023-10-13T14:16:39;6.80;;;2.70;;
13408;SDS011;6775;49.574;11.170;2023-10-13T14:19:13;3.87;;;2.63;;
13408;SDS011;6775;49.574;11.170;2023-10-13T14:21:46;4.90;;;2.57;;
13408;SDS011;6775;49.574;11.170;2023-10-13T14:24:19;4.23;;;2.50;;
13408;SDS011;6775;49.574;11.170;2023-10-13T14:26:53;5.20;;;2.90;;
13408;SDS011;6775;49.574;11.170;2023-10-13T14:29:21;3.33;;;2.20;;
13408;SDS011;6775;49.574;11.170;2023-10-13T14:31:53;3.90;;;2.40;;
13408;SDS011;6775;49.574;11.170;2023-10-13T14:34:22;3.20;;;2.33;;
13408;SDS011;6775;49.574;11.170;2023-10-13T14:36:52;4.13;;;2.37;;
13408;SDS011;6775;49.574;11.170;2023-10-13T14:39:20;4.80;;;2.70;;
13408;SDS011;6775;49.574;11.170;2023-10-13T14:41:48;4.37;;;2.43;;
13408;SDS011;6775;49.574;11.170;2023-10-13T14:44:16;3.57;;;2.23;;
13408;SDS011;6775;49.574;11.170;2023-10-13T14:46:45;4.27;;;2.67;;
13408;SDS011;6775;49.574;11.170;2023-10-13T14:49:13;7.23;;;3.00;;
13408;SDS011;6775;49.574;11.170;2023-10-13T14:51:46;5.37;;;2.77;;
13408;SDS011;6775;49.574;11.170;2023-10-13T14:54:16;4.47;;;2.63;;
13408;SDS011;6775;49.574;11.170;2023-10-13T14:56:51;5.40;;;2.73;;
13408;SDS011;6775;49.574;11.170;2023-10-13T14:59:21;4.97;;;2.60;;
13408;SDS011;6775;49.574;11.170;2023-10-13T15:01:49;3.50;;;2.77;;
13408;SDS011;6775;49.574;11.170;2023-10-13T15:04:17;4.73;;;1.97;;
13408;SDS011;6775;49.574;11.170;2023-10-13T15:06:52;5.47;;;2.70;;
13408;SDS011;6775;49.574;11.170;2023-10-13T15:09:20;5.33;;;2.37;;
13408;SDS011;6775;49.574;11.170;2023-10-13T15:11:50;3.27;;;2.27;;
13408;SDS011;6775;49.574;11.170;2023-10-13T15:14:19;3.70;;;2.50;;
13408;SDS011;6775;49.574;11.170;2023-10-13T15:16:49;2.53;;;2.03;;
13408;SDS011;6775;49.574;11.170;2023-10-13T15:19:18;5.67;;;2.60;;
13408;SDS011;6775;49.574;11.170;2023-10-13T15:21:46;3.90;;;2.57;;
13408;SDS011;6775;49.574;11.170;2023-10-13T15:24:18;5.87;;;2.10;;
13408;SDS011;6775;49.574;11.170;2023-10-13T15:26:53;3.57;;;2.00;;
13408;SDS011;6775;49.574;11.170;2023-10-13T15:29:29;4.27;;;2.30;;
13408;SDS011;6775;49.574;11.170;2023-10-13T15:32:02;5.80;;;2.20;;
13408;SDS011;6775;49.574;11.170;2023-10-13T15:34:53;5.00;;;2.40;;
13408;SDS011;6775;49.574;11.170;2023-10-13T15:37:22;3.97;;;2.10;;
13408;SDS011;6775;49.574;11.170;2023-10-13T15:39:52;3.30;;;1.67;;
13408;SDS011;6775;49.574;11.170;2023-10-13T15:42:20;3.00;;;1.97;;
13408;SDS011;6775;49.574;11.170;2023-10-13T15:44:48;4.33;;;1.90;;